sensor_id;sensor_type;location;lat;lon;timestamp;pressure;altitude;pressure_sealevel;temperature;humidity
62926;BME280;55732;52.248;-0.844;2023-01-28T00:01:06;102355.73;;;4.02;75.06
62926;BME280;55732;52.248;-0.844;2023-01-28T00:03:32;102351.23;;;3.99;75.04
62926;BME280;55732;52.248;-0.844;2023-01-28T00:06:06;102352.05;;;3.94;75.08
62926;BME280;55732;52.248;-0.844;2023-01-28T00:08:32;102347.48;;;3.90;75.23
62926;BME280;55732;52.248;-0.844;2023-01-28T00:11:02;102347.85;;;3.88;75.42
62926;BME280;55732;52.248;-0.844;2023-01-28T00:13:28;102345.60;;;3.88;75.80
62926;BME280;55732;52.248;-0.844;2023-01-28T00:15:59;102343.76;;;3.89;75.82
62926;BME280;55732;52.248;-0.844;2023-01-28T00:18:29;102344.16;;;3.91;75.82
62926;BME280;55732;52.248;-0.844;2023-01-28T00:21:00;102338.67;;;3.92;75.86
62926;BME280;55732;52.248;-0.844;2023-01-28T00:23:31;102342.16;;;3.92;75.84
62926;BME280;55732;52.248;-0.844;2023-01-28T00:26:01;102343.35;;;3.92;75.99
62926;BME280;55732;52.248;-0.844;2023-01-28T00:28:27;102341.98;;;3.92;76.00
62926;BME280;55732;52.248;-0.844;2023-01-28T00:30:52;102337.85;;;3.93;75.94
62926;BME280;55732;52.248;-0.844;2023-01-28T00:33:18;102334.20;;;3.94;75.89
62926;BME280;55732;52.248;-0.844;2023-01-28T00:35:44;102335.22;;;3.93;75.84
62926;BME280;55732;52.248;-0.844;2023-01-28T00:38:09;102339.48;;;3.91;76.17
62926;BME280;55732;52.248;-0.844;2023-01-28T00:40:35;102342.08;;;3.91;76.34
62926;BME280;55732;52.248;-0.844;2023-01-28T00:43:01;102340.94;;;3.92;75.94
62926;BME280;55732;52.248;-0.844;2023-01-28T00:45:26;102340.41;;;3.92;76.02
62926;BME280;55732;52.248;-0.844;2023-01-28T00:47:52;102342.80;;;3.91;75.88
62926;BME280;55732;52.248;-0.844;2023-01-28T00:50:17;102340.82;;;3.90;76.05
62926;BME280;55732;52.248;-0.844;2023-01-28T00:52:45;102334.48;;;3.89;75.96
62926;BME280;55732;52.248;-0.844;2023-01-28T00:55:11;102333.55;;;3.88;75.93
62926;BME280;55732;52.248;-0.844;2023-01-28T00:57:36;102330.89;;;3.87;76.14
62926;BME280;55732;52.248;-0.844;2023-01-28T01:00:02;102332.19;;;3.88;76.08
62926;BME280;55732;52.248;-0.844;2023-01-28T01:02:28;102333.61;;;3.88;76.02
62926;BME280;55732;52.248;-0.844;2023-01-28T01:04:53;102322.95;;;3.88;76.11
62926;BME280;55732;52.248;-0.844;2023-01-28T01:07:31;102322.96;;;3.88;75.98
62926;BME280;55732;52.248;-0.844;2023-01-28T01:10:08;102322.33;;;3.90;76.17
62926;BME280;55732;52.248;-0.844;2023-01-28T01:12:33;102317.58;;;3.92;76.11
62926;BME280;55732;52.248;-0.844;2023-01-28T01:14:59;102311.77;;;3.94;75.77
62926;BME280;55732;52.248;-0.844;2023-01-28T01:17:24;102304.66;;;3.95;74.83
62926;BME280;55732;52.248;-0.844;2023-01-28T01:19:50;102305.66;;;3.97;74.62
62926;BME280;55732;52.248;-0.844;2023-01-28T01:22:15;102299.13;;;3.99;74.22
62926;BME280;55732;52.248;-0.844;2023-01-28T01:24:41;102293.40;;;3.99;74.55
62926;BME280;55732;52.248;-0.844;2023-01-28T01:27:06;102297.53;;;3.98;74.72
62926;BME280;55732;52.248;-0.844;2023-01-28T01:29:31;102297.98;;;3.97;74.94
62926;BME280;55732;52.248;-0.844;2023-01-28T01:31:58;102300.13;;;3.94;74.96
62926;BME280;55732;52.248;-0.844;2023-01-28T01:34:24;102299.98;;;3.92;74.91
62926;BME280;55732;52.248;-0.844;2023-01-28T01:36:50;102298.08;;;3.89;75.13
62926;BME280;55732;52.248;-0.844;2023-01-28T01:39:15;102295.02;;;3.87;75.39
62926;BME280;55732;52.248;-0.844;2023-01-28T01:41:41;102300.95;;;3.87;75.36
62926;BME280;55732;52.248;-0.844;2023-01-28T01:47:11;102303.71;;;3.90;75.33
62926;BME280;55732;52.248;-0.844;2023-01-28T01:49:39;102305.73;;;3.92;75.41
62926;BME280;55732;52.248;-0.844;2023-01-28T01:52:12;102301.94;;;3.93;75.28
62926;BME280;55732;52.248;-0.844;2023-01-28T01:54:42;102304.05;;;3.93;75.31
62926;BME280;55732;52.248;-0.844;2023-01-28T01:57:13;102300.86;;;3.92;75.69
62926;BME280;55732;52.248;-0.844;2023-01-28T01:59:41;102296.58;;;3.94;75.58
62926;BME280;55732;52.248;-0.844;2023-01-28T02:02:10;102299.89;;;3.93;75.56
62926;BME280;55732;52.248;-0.844;2023-01-28T02:04:39;102300.39;;;3.93;75.72
62926;BME280;55732;52.248;-0.844;2023-01-28T02:07:07;102304.39;;;3.93;75.76
62926;BME280;55732;52.248;-0.844;2023-01-28T02:09:33;102306.00;;;3.94;75.70
62926;BME280;55732;52.248;-0.844;2023-01-28T02:12:16;102304.23;;;3.93;75.55
62926;BME280;55732;52.248;-0.844;2023-01-28T02:14:56;102312.58;;;3.93;75.37
62926;BME280;55732;52.248;-0.844;2023-01-28T02:17:23;102319.80;;;3.94;75.32
62926;BME280;55732;52.248;-0.844;2023-01-28T02:20:08;102329.42;;;3.95;75.09
62926;BME280;55732;52.248;-0.844;2023-01-28T02:30:37;102322.93;;;3.97;74.48
62926;BME280;55732;52.248;-0.844;2023-01-28T02:33:09;102321.69;;;4.00;74.44
62926;BME280;55732;52.248;-0.844;2023-01-28T02:35:44;102318.95;;;4.05;74.51
62926;BME280;55732;52.248;-0.844;2023-01-28T02:38:15;102325.01;;;4.10;74.53
62926;BME280;55732;52.248;-0.844;2023-01-28T02:40:46;102325.72;;;4.14;74.62
62926;BME280;55732;52.248;-0.844;2023-01-28T02:43:36;102319.01;;;4.19;74.69
62926;BME280;55732;52.248;-0.844;2023-01-28T02:49:26;102314.20;;;4.24;75.07
62926;BME280;55732;52.248;-0.844;2023-01-28T03:02:51;102324.56;;;4.15;75.05
62926;BME280;55732;52.248;-0.844;2023-01-28T03:07:50;102320.30;;;4.10;75.23
62926;BME280;55732;52.248;-0.844;2023-01-28T03:10:20;102320.55;;;4.09;75.18
62926;BME280;55732;52.248;-0.844;2023-01-28T03:12:50;102323.48;;;4.08;75.44
62926;BME280;55732;52.248;-0.844;2023-01-28T03:15:45;102327.39;;;4.06;75.50
62926;BME280;55732;52.248;-0.844;2023-01-28T03:19:03;102323.14;;;4.05;75.47
62926;BME280;55732;52.248;-0.844;2023-01-28T03:21:47;102316.40;;;4.06;75.64
62926;BME280;55732;52.248;-0.844;2023-01-28T03:24:34;102313.11;;;4.09;75.87
62926;BME280;55732;52.248;-0.844;2023-01-28T03:30:18;102311.29;;;4.15;75.60
62926;BME280;55732;52.248;-0.844;2023-01-28T03:33:04;102310.13;;;4.16;75.81
62926;BME280;55732;52.248;-0.844;2023-01-28T03:35:49;102308.67;;;4.18;75.82
62926;BME280;55732;52.248;-0.844;2023-01-28T03:38:33;102307.39;;;4.20;75.79
62926;BME280;55732;52.248;-0.844;2023-01-28T03:41:08;102302.46;;;4.19;75.71
62926;BME280;55732;52.248;-0.844;2023-01-28T03:43:34;102302.25;;;4.18;75.83
62926;BME280;55732;52.248;-0.844;2023-01-28T03:46:00;102302.20;;;4.17;76.01
62926;BME280;55732;52.248;-0.844;2023-01-28T03:48:27;102304.42;;;4.17;76.05
62926;BME280;55732;52.248;-0.844;2023-01-28T03:50:57;102304.54;;;4.16;75.78
62926;BME280;55732;52.248;-0.844;2023-01-28T03:53:24;102313.15;;;4.14;75.83
62926;BME280;55732;52.248;-0.844;2023-01-28T03:55:52;102311.48;;;4.11;75.95
62926;BME280;55732;52.248;-0.844;2023-01-28T03:58:19;102307.17;;;4.09;75.83
62926;BME280;55732;52.248;-0.844;2023-01-28T04:00:46;102296.86;;;4.05;75.95
62926;BME280;55732;52.248;-0.844;2023-01-28T04:03:14;102295.19;;;4.04;75.92
62926;BME280;55732;52.248;-0.844;2023-01-28T04:06:02;102300.81;;;4.04;75.98
62926;BME280;55732;52.248;-0.844;2023-01-28T04:08:28;102301.95;;;4.03;76.15
62926;BME280;55732;52.248;-0.844;2023-01-28T04:10:55;102298.94;;;4.02;75.80
62926;BME280;55732;52.248;-0.844;2023-01-28T04:13:20;102293.37;;;4.02;76.32
62926;BME280;55732;52.248;-0.844;2023-01-28T04:15:47;102290.91;;;4.02;76.45
62926;BME280;55732;52.248;-0.844;2023-01-28T04:18:12;102295.90;;;4.04;76.43
62926;BME280;55732;52.248;-0.844;2023-01-28T04:20:38;102296.92;;;4.07;76.68
62926;BME280;55732;52.248;-0.844;2023-01-28T04:23:04;102297.34;;;4.11;76.74
62926;BME280;55732;52.248;-0.844;2023-01-28T04:25:31;102293.65;;;4.14;76.63
62926;BME280;55732;52.248;-0.844;2023-01-28T04:27:56;102294.02;;;4.15;76.51
62926;BME280;55732;52.248;-0.844;2023-01-28T04:30:22;102301.37;;;4.15;76.58
62926;BME280;55732;52.248;-0.844;2023-01-28T04:32:48;102304.35;;;4.15;76.53
62926;BME280;55732;52.248;-0.844;2023-01-28T04:35:15;102301.08;;;4.16;76.33
62926;BME280;55732;52.248;-0.844;2023-01-28T04:37:41;102300.02;;;4.16;76.41
62926;BME280;55732;52.248;-0.844;2023-01-28T04:40:07;102302.02;;;4.14;76.40
62926;BME280;55732;52.248;-0.844;2023-01-28T04:42:32;102297.27;;;4.13;76.49
62926;BME280;55732;52.248;-0.844;2023-01-28T04:44:58;102298.28;;;4.13;76.49
62926;BME280;55732;52.248;-0.844;2023-01-28T04:47:23;102303.45;;;4.11;76.57
62926;BME280;55732;52.248;-0.844;2023-01-28T04:49:49;102309.08;;;4.09;76.33
62926;BME280;55732;52.248;-0.844;2023-01-28T04:52:14;102307.41;;;4.07;76.60
62926;BME280;55732;52.248;-0.844;2023-01-28T04:54:40;102311.70;;;4.06;76.45
62926;BME280;55732;52.248;-0.844;2023-01-28T04:57:05;102310.04;;;4.05;76.46
62926;BME280;55732;52.248;-0.844;2023-01-28T04:59:30;102307.80;;;4.02;76.65
62926;BME280;55732;52.248;-0.844;2023-01-28T05:01:56;102308.73;;;3.99;76.51
62926;BME280;55732;52.248;-0.844;2023-01-28T05:04:21;102306.20;;;3.97;76.49
62926;BME280;55732;52.248;-0.844;2023-01-28T05:06:46;102309.38;;;3.98;76.71
62926;BME280;55732;52.248;-0.844;2023-01-28T05:09:12;102310.13;;;3.99;76.88
62926;BME280;55732;52.248;-0.844;2023-01-28T05:11:37;102312.23;;;4.03;76.56
62926;BME280;55732;52.248;-0.844;2023-01-28T05:14:03;102312.05;;;4.06;76.92
62926;BME280;55732;52.248;-0.844;2023-01-28T05:16:28;102308.60;;;4.10;76.65
62926;BME280;55732;52.248;-0.844;2023-01-28T05:18:53;102311.82;;;4.11;76.72
62926;BME280;55732;52.248;-0.844;2023-01-28T05:21:19;102301.36;;;4.11;76.79
62926;BME280;55732;52.248;-0.844;2023-01-28T05:23:44;102304.67;;;4.11;76.65
62926;BME280;55732;52.248;-0.844;2023-01-28T05:26:10;102308.02;;;4.12;76.71
62926;BME280;55732;52.248;-0.844;2023-01-28T05:28:35;102306.89;;;4.10;77.04
62926;BME280;55732;52.248;-0.844;2023-01-28T05:31:05;102305.45;;;4.10;77.16
62926;BME280;55732;52.248;-0.844;2023-01-28T05:33:30;102302.73;;;4.08;76.92
62926;BME280;55732;52.248;-0.844;2023-01-28T05:35:56;102297.58;;;4.06;76.87
62926;BME280;55732;52.248;-0.844;2023-01-28T05:38:21;102301.77;;;4.03;77.16
62926;BME280;55732;52.248;-0.844;2023-01-28T05:40:47;102298.55;;;4.01;77.19
62926;BME280;55732;52.248;-0.844;2023-01-28T05:43:13;102295.86;;;3.99;77.26
62926;BME280;55732;52.248;-0.844;2023-01-28T05:45:38;102295.77;;;3.98;77.29
62926;BME280;55732;52.248;-0.844;2023-01-28T05:48:04;102291.14;;;3.96;77.34
62926;BME280;55732;52.248;-0.844;2023-01-28T05:50:29;102297.89;;;3.95;77.27
62926;BME280;55732;52.248;-0.844;2023-01-28T05:52:55;102302.38;;;3.94;77.32
62926;BME280;55732;52.248;-0.844;2023-01-28T05:55:20;102298.91;;;3.95;77.59
62926;BME280;55732;52.248;-0.844;2023-01-28T05:57:47;102300.06;;;3.97;77.69
62926;BME280;55732;52.248;-0.844;2023-01-28T06:00:13;102302.05;;;3.98;77.64
62926;BME280;55732;52.248;-0.844;2023-01-28T06:02:40;102302.51;;;4.00;77.78
62926;BME280;55732;52.248;-0.844;2023-01-28T06:05:07;102306.80;;;4.03;77.79
62926;BME280;55732;52.248;-0.844;2023-01-28T06:07:32;102306.52;;;4.04;77.85
62926;BME280;55732;52.248;-0.844;2023-01-28T06:09:58;102307.58;;;4.04;77.70
62926;BME280;55732;52.248;-0.844;2023-01-28T06:12:23;102305.48;;;4.04;77.78
62926;BME280;55732;52.248;-0.844;2023-01-28T06:14:48;102315.95;;;4.04;77.55
62926;BME280;55732;52.248;-0.844;2023-01-28T06:17:14;102314.20;;;4.04;77.69
62926;BME280;55732;52.248;-0.844;2023-01-28T06:19:39;102305.98;;;4.03;77.75
62926;BME280;55732;52.248;-0.844;2023-01-28T06:22:05;102302.27;;;4.03;77.66
62926;BME280;55732;52.248;-0.844;2023-01-28T06:24:30;102308.17;;;4.02;77.76
62926;BME280;55732;52.248;-0.844;2023-01-28T06:26:56;102308.14;;;4.01;77.83
62926;BME280;55732;52.248;-0.844;2023-01-28T06:29:22;102307.73;;;4.00;77.87
62926;BME280;55732;52.248;-0.844;2023-01-28T06:31:47;102312.02;;;3.98;77.74
62926;BME280;55732;52.248;-0.844;2023-01-28T06:34:13;102307.59;;;3.97;77.79
62926;BME280;55732;52.248;-0.844;2023-01-28T06:36:39;102309.17;;;3.97;77.88
62926;BME280;55732;52.248;-0.844;2023-01-28T06:39:05;102312.73;;;3.99;77.85
62926;BME280;55732;52.248;-0.844;2023-01-28T06:41:30;102317.05;;;4.02;77.97
62926;BME280;55732;52.248;-0.844;2023-01-28T06:43:56;102318.78;;;4.05;78.09
62926;BME280;55732;52.248;-0.844;2023-01-28T06:46:21;102310.76;;;4.08;77.89
62926;BME280;55732;52.248;-0.844;2023-01-28T06:48:47;102310.58;;;4.11;77.81
62926;BME280;55732;52.248;-0.844;2023-01-28T06:51:12;102320.60;;;4.13;77.72
62926;BME280;55732;52.248;-0.844;2023-01-28T06:53:38;102317.66;;;4.13;77.78
62926;BME280;55732;52.248;-0.844;2023-01-28T06:56:03;102314.52;;;4.13;77.81
62926;BME280;55732;52.248;-0.844;2023-01-28T06:58:29;102318.70;;;4.13;77.61
62926;BME280;55732;52.248;-0.844;2023-01-28T07:00:54;102319.04;;;4.13;77.55
62926;BME280;55732;52.248;-0.844;2023-01-28T07:03:20;102310.47;;;4.12;77.38
62926;BME280;55732;52.248;-0.844;2023-01-28T07:05:46;102308.09;;;4.10;77.48
62926;BME280;55732;52.248;-0.844;2023-01-28T07:08:12;102312.89;;;4.09;77.46
62926;BME280;55732;52.248;-0.844;2023-01-28T07:10:37;102313.31;;;4.07;77.49
62926;BME280;55732;52.248;-0.844;2023-01-28T07:13:02;102319.50;;;4.05;77.77
62926;BME280;55732;52.248;-0.844;2023-01-28T07:15:28;102320.77;;;4.03;77.93
62926;BME280;55732;52.248;-0.844;2023-01-28T07:17:53;102322.98;;;4.02;77.79
62926;BME280;55732;52.248;-0.844;2023-01-28T07:20:19;102317.02;;;4.01;78.06
62926;BME280;55732;52.248;-0.844;2023-01-28T07:22:45;102318.48;;;4.02;78.16
62926;BME280;55732;52.248;-0.844;2023-01-28T07:25:11;102318.44;;;4.05;78.16
62926;BME280;55732;52.248;-0.844;2023-01-28T07:27:38;102317.35;;;4.07;78.11
62926;BME280;55732;52.248;-0.844;2023-01-28T07:30:04;102320.58;;;4.09;78.02
62926;BME280;55732;52.248;-0.844;2023-01-28T07:32:30;102329.37;;;4.10;78.08
62926;BME280;55732;52.248;-0.844;2023-01-28T07:34:55;102331.36;;;4.11;78.11
62926;BME280;55732;52.248;-0.844;2023-01-28T07:37:21;102325.29;;;4.12;77.89
62926;BME280;55732;52.248;-0.844;2023-01-28T07:39:46;102329.50;;;4.13;77.82
62926;BME280;55732;52.248;-0.844;2023-01-28T07:42:12;102317.28;;;4.12;77.66
62926;BME280;55732;52.248;-0.844;2023-01-28T07:44:37;102321.84;;;4.13;77.55
62926;BME280;55732;52.248;-0.844;2023-01-28T07:47:04;102322.88;;;4.13;77.52
62926;BME280;55732;52.248;-0.844;2023-01-28T07:49:30;102316.36;;;4.11;77.48
62926;BME280;55732;52.248;-0.844;2023-01-28T07:51:57;102316.28;;;4.10;77.49
62926;BME280;55732;52.248;-0.844;2023-01-28T07:54:22;102312.48;;;4.08;77.53
62926;BME280;55732;52.248;-0.844;2023-01-28T07:56:48;102316.25;;;4.07;77.63
62926;BME280;55732;52.248;-0.844;2023-01-28T07:59:13;102321.12;;;4.06;77.48
62926;BME280;55732;52.248;-0.844;2023-01-28T08:01:39;102320.84;;;4.04;77.40
62926;BME280;55732;52.248;-0.844;2023-01-28T08:04:04;102316.13;;;4.01;77.41
62926;BME280;55732;52.248;-0.844;2023-01-28T08:06:29;102323.83;;;4.05;77.34
62926;BME280;55732;52.248;-0.844;2023-01-28T08:08:55;102331.25;;;4.07;77.39
62926;BME280;55732;52.248;-0.844;2023-01-28T08:11:20;102336.45;;;4.09;77.29
62926;BME280;55732;52.248;-0.844;2023-01-28T08:13:47;102339.14;;;4.14;77.18
62926;BME280;55732;52.248;-0.844;2023-01-28T08:16:13;102343.20;;;4.18;77.21
62926;BME280;55732;52.248;-0.844;2023-01-28T08:18:38;102338.85;;;4.18;77.24
62926;BME280;55732;52.248;-0.844;2023-01-28T08:21:04;102337.73;;;4.23;76.98
62926;BME280;55732;52.248;-0.844;2023-01-28T08:23:29;102347.42;;;4.26;76.92
62926;BME280;55732;52.248;-0.844;2023-01-28T08:25:59;102355.50;;;4.26;76.72
62926;BME280;55732;52.248;-0.844;2023-01-28T08:28:24;102359.16;;;4.27;76.70
62926;BME280;55732;52.248;-0.844;2023-01-28T08:30:50;102355.69;;;4.27;76.67
62926;BME280;55732;52.248;-0.844;2023-01-28T08:33:17;102359.39;;;4.28;76.53
62926;BME280;55732;52.248;-0.844;2023-01-28T08:35:42;102359.77;;;4.28;76.39
62926;BME280;55732;52.248;-0.844;2023-01-28T08:38:10;102359.41;;;4.28;76.54
62926;BME280;55732;52.248;-0.844;2023-01-28T08:40:36;102369.73;;;4.28;76.39
62926;BME280;55732;52.248;-0.844;2023-01-28T08:43:02;102376.73;;;4.29;76.44
62926;BME280;55732;52.248;-0.844;2023-01-28T08:45:28;102375.88;;;4.29;76.45
62926;BME280;55732;52.248;-0.844;2023-01-28T08:47:57;102367.61;;;4.31;76.55
62926;BME280;55732;52.248;-0.844;2023-01-28T08:50:25;102361.85;;;4.34;76.27
62926;BME280;55732;52.248;-0.844;2023-01-28T08:52:59;102364.65;;;4.38;76.24
62926;BME280;55732;52.248;-0.844;2023-01-28T08:55:25;102365.64;;;4.44;76.41
62926;BME280;55732;52.248;-0.844;2023-01-28T08:57:52;102370.67;;;4.50;76.36
62926;BME280;55732;52.248;-0.844;2023-01-28T09:00:18;102380.95;;;4.56;76.25
62926;BME280;55732;52.248;-0.844;2023-01-28T09:02:43;102377.77;;;4.62;76.18
62926;BME280;55732;52.248;-0.844;2023-01-28T09:05:09;102375.06;;;4.67;75.94
62926;BME280;55732;52.248;-0.844;2023-01-28T09:07:35;102363.89;;;4.70;76.05
62926;BME280;55732;52.248;-0.844;2023-01-28T09:10:02;102364.58;;;4.74;75.92
62926;BME280;55732;52.248;-0.844;2023-01-28T09:12:28;102365.98;;;4.77;75.82
62926;BME280;55732;52.248;-0.844;2023-01-28T09:14:53;102364.90;;;4.80;75.60
62926;BME280;55732;52.248;-0.844;2023-01-28T09:17:20;102368.19;;;4.83;75.65
62926;BME280;55732;52.248;-0.844;2023-01-28T09:19:45;102357.48;;;4.86;75.55
62926;BME280;55732;52.248;-0.844;2023-01-28T09:22:11;102345.72;;;4.87;75.56
62926;BME280;55732;52.248;-0.844;2023-01-28T09:24:36;102343.86;;;4.88;75.41
62926;BME280;55732;52.248;-0.844;2023-01-28T09:27:02;102340.71;;;4.91;75.37
62926;BME280;55732;52.248;-0.844;2023-01-28T09:29:27;102332.14;;;4.95;75.44
62926;BME280;55732;52.248;-0.844;2023-01-28T09:31:52;102327.16;;;4.97;75.32
62926;BME280;55732;52.248;-0.844;2023-01-28T09:34:18;102327.70;;;5.00;75.65
62926;BME280;55732;52.248;-0.844;2023-01-28T09:36:43;102329.02;;;5.05;75.59
62926;BME280;55732;52.248;-0.844;2023-01-28T09:39:09;102332.93;;;5.11;75.53
62926;BME280;55732;52.248;-0.844;2023-01-28T09:44:24;102330.55;;;5.23;75.42
62926;BME280;55732;52.248;-0.844;2023-01-28T09:46:52;102329.29;;;5.29;75.33
62926;BME280;55732;52.248;-0.844;2023-01-28T09:49:41;102325.50;;;5.34;75.25
62926;BME280;55732;52.248;-0.844;2023-01-28T09:52:16;102325.46;;;5.40;74.93
62926;BME280;55732;52.248;-0.844;2023-01-28T09:55:03;102324.15;;;5.46;74.75
62926;BME280;55732;52.248;-0.844;2023-01-28T09:57:42;102327.86;;;5.54;74.87
62926;BME280;55732;52.248;-0.844;2023-01-28T10:00:22;102321.55;;;5.61;74.45
62926;BME280;55732;52.248;-0.844;2023-01-28T10:02:58;102320.30;;;5.64;74.02
62926;BME280;55732;52.248;-0.844;2023-01-28T10:11:19;102302.02;;;5.81;74.14
62926;BME280;55732;52.248;-0.844;2023-01-28T10:17:06;102291.77;;;5.97;73.65
62926;BME280;55732;52.248;-0.844;2023-01-28T10:19:39;102291.73;;;6.07;73.68
62926;BME280;55732;52.248;-0.844;2023-01-28T10:24:51;102288.63;;;6.37;73.35
62926;BME280;55732;52.248;-0.844;2023-01-28T10:27:21;102291.83;;;6.50;73.09
62926;BME280;55732;52.248;-0.844;2023-01-28T10:29:49;102294.06;;;6.57;72.70
62926;BME280;55732;52.248;-0.844;2023-01-28T10:32:31;102297.42;;;6.62;72.50
62926;BME280;55732;52.248;-0.844;2023-01-28T10:34:58;102295.20;;;6.68;72.41
62926;BME280;55732;52.248;-0.844;2023-01-28T10:37:26;102297.33;;;6.68;72.45
62926;BME280;55732;52.248;-0.844;2023-01-28T10:39:57;102299.90;;;6.71;72.37
62926;BME280;55732;52.248;-0.844;2023-01-28T10:42:32;102295.63;;;6.74;72.30
62926;BME280;55732;52.248;-0.844;2023-01-28T10:45:22;102302.81;;;6.74;72.33
62926;BME280;55732;52.248;-0.844;2023-01-28T10:47:53;102301.18;;;6.73;72.14
62926;BME280;55732;52.248;-0.844;2023-01-28T10:50:25;102301.10;;;6.70;72.09
62926;BME280;55732;52.248;-0.844;2023-01-28T10:53:02;102304.52;;;6.69;72.21
62926;BME280;55732;52.248;-0.844;2023-01-28T10:55:47;102305.14;;;6.67;72.43
62926;BME280;55732;52.248;-0.844;2023-01-28T10:58:18;102304.66;;;6.64;72.42
62926;BME280;55732;52.248;-0.844;2023-01-28T11:00:45;102301.11;;;6.59;72.44
62926;BME280;55732;52.248;-0.844;2023-01-28T11:03:20;102300.95;;;6.55;72.68
62926;BME280;55732;52.248;-0.844;2023-01-28T11:05:53;102300.27;;;6.55;72.87
62926;BME280;55732;52.248;-0.844;2023-01-28T11:08:20;102304.85;;;6.60;73.10
62926;BME280;55732;52.248;-0.844;2023-01-28T11:10:47;102306.23;;;6.68;73.23
62926;BME280;55732;52.248;-0.844;2023-01-28T11:13:23;102307.84;;;6.77;73.07
62926;BME280;55732;52.248;-0.844;2023-01-28T11:18:22;102307.42;;;6.92;72.98
62926;BME280;55732;52.248;-0.844;2023-01-28T11:20:58;102304.98;;;6.97;72.90
62926;BME280;55732;52.248;-0.844;2023-01-28T11:23:36;102304.09;;;7.05;72.97
62926;BME280;55732;52.248;-0.844;2023-01-28T11:26:06;102304.11;;;7.14;72.84
62926;BME280;55732;52.248;-0.844;2023-01-28T11:28:34;102302.24;;;7.20;72.87
62926;BME280;55732;52.248;-0.844;2023-01-28T11:31:01;102302.23;;;7.24;72.79
62926;BME280;55732;52.248;-0.844;2023-01-28T11:33:41;102300.45;;;7.28;72.85
62926;BME280;55732;52.248;-0.844;2023-01-28T11:41:26;102295.27;;;7.39;72.89
62926;BME280;55732;52.248;-0.844;2023-01-28T11:43:53;102295.10;;;7.38;73.00
62926;BME280;55732;52.248;-0.844;2023-01-28T11:52:05;102312.39;;;7.19;73.52
62926;BME280;55732;52.248;-0.844;2023-01-28T11:55:57;102308.77;;;7.12;73.40
62926;BME280;55732;52.248;-0.844;2023-01-28T12:27:50;102308.23;;;6.49;75.80
62926;BME280;55732;52.248;-0.844;2023-01-28T12:35:49;102285.10;;;6.61;75.49
62926;BME280;55732;52.248;-0.844;2023-01-28T12:38:40;102287.77;;;6.62;75.60
62926;BME280;55732;52.248;-0.844;2023-01-28T12:41:19;102284.89;;;6.64;75.81
62926;BME280;55732;52.248;-0.844;2023-01-28T12:44:00;102279.95;;;6.72;75.90
62926;BME280;55732;52.248;-0.844;2023-01-28T12:49:05;102269.33;;;6.81;75.57
62926;BME280;55732;52.248;-0.844;2023-01-28T12:51:48;102263.83;;;6.79;75.53
62926;BME280;55732;52.248;-0.844;2023-01-28T12:54:21;102258.23;;;6.80;75.65
62926;BME280;55732;52.248;-0.844;2023-01-28T12:56:51;102256.96;;;6.78;75.83
62926;BME280;55732;52.248;-0.844;2023-01-28T12:59:24;102254.51;;;6.78;75.86
62926;BME280;55732;52.248;-0.844;2023-01-28T13:07:10;102247.40;;;6.84;75.92
62926;BME280;55732;52.248;-0.844;2023-01-28T13:09:45;102249.98;;;6.83;76.06
62926;BME280;55732;52.248;-0.844;2023-01-28T13:12:13;102244.33;;;6.82;76.15
62926;BME280;55732;52.248;-0.844;2023-01-28T13:14:40;102243.63;;;6.82;75.97
62926;BME280;55732;52.248;-0.844;2023-01-28T13:17:24;102247.71;;;6.83;76.09
62926;BME280;55732;52.248;-0.844;2023-01-28T13:19:50;102248.34;;;6.86;75.93
62926;BME280;55732;52.248;-0.844;2023-01-28T13:22:32;102244.17;;;6.87;75.84
62926;BME280;55732;52.248;-0.844;2023-01-28T13:25:23;102237.74;;;6.88;75.78
62926;BME280;55732;52.248;-0.844;2023-01-28T13:28:28;102239.14;;;6.92;75.68
62926;BME280;55732;52.248;-0.844;2023-01-28T13:31:10;102234.45;;;6.98;75.81
62926;BME280;55732;52.248;-0.844;2023-01-28T13:33:46;102234.26;;;7.06;75.79
62926;BME280;55732;52.248;-0.844;2023-01-28T13:36:47;102236.42;;;7.12;75.62
62926;BME280;55732;52.248;-0.844;2023-01-28T13:41:43;102230.69;;;7.13;75.43
62926;BME280;55732;52.248;-0.844;2023-01-28T13:46:51;102232.02;;;7.11;75.39
62926;BME280;55732;52.248;-0.844;2023-01-28T13:49:31;102234.77;;;7.10;75.36
62926;BME280;55732;52.248;-0.844;2023-01-28T13:54:59;102222.98;;;7.04;75.48
62926;BME280;55732;52.248;-0.844;2023-01-28T14:19:59;102242.08;;;6.95;75.75
62926;BME280;55732;52.248;-0.844;2023-01-28T14:22:25;102245.56;;;6.95;75.72
62926;BME280;55732;52.248;-0.844;2023-01-28T14:24:51;102245.71;;;6.95;75.82
62926;BME280;55732;52.248;-0.844;2023-01-28T14:27:30;102252.40;;;6.95;75.65
62926;BME280;55732;52.248;-0.844;2023-01-28T14:30:19;102253.30;;;6.96;75.84
62926;BME280;55732;52.248;-0.844;2023-01-28T14:32:50;102259.95;;;6.97;75.80
62926;BME280;55732;52.248;-0.844;2023-01-28T14:35:32;102260.13;;;6.97;75.72
62926;BME280;55732;52.248;-0.844;2023-01-28T14:37:59;102265.55;;;6.96;75.74
62926;BME280;55732;52.248;-0.844;2023-01-28T14:40:32;102265.17;;;6.95;75.67
62926;BME280;55732;52.248;-0.844;2023-01-28T14:43:05;102265.45;;;6.93;75.67
62926;BME280;55732;52.248;-0.844;2023-01-28T14:48:38;102259.34;;;6.90;76.01
62926;BME280;55732;52.248;-0.844;2023-01-28T14:53:48;102247.70;;;6.96;76.12
62926;BME280;55732;52.248;-0.844;2023-01-28T14:59:19;102246.48;;;7.05;76.06
62926;BME280;55732;52.248;-0.844;2023-01-28T15:01:47;102245.08;;;7.09;75.95
62926;BME280;55732;52.248;-0.844;2023-01-28T15:04:26;102236.85;;;7.10;75.94
62926;BME280;55732;52.248;-0.844;2023-01-28T15:06:52;102238.58;;;7.09;75.91
62926;BME280;55732;52.248;-0.844;2023-01-28T15:09:18;102237.63;;;7.07;75.87
62926;BME280;55732;52.248;-0.844;2023-01-28T15:11:46;102239.58;;;7.03;75.82
62926;BME280;55732;52.248;-0.844;2023-01-28T15:14:29;102240.29;;;6.99;75.96
62926;BME280;55732;52.248;-0.844;2023-01-28T15:16:56;102241.41;;;6.97;76.01
62926;BME280;55732;52.248;-0.844;2023-01-28T15:19:28;102235.65;;;6.93;76.16
62926;BME280;55732;52.248;-0.844;2023-01-28T15:21:56;102235.66;;;6.89;76.37
62926;BME280;55732;52.248;-0.844;2023-01-28T15:24:24;102236.45;;;6.87;76.46